sensor_id;sensor_type;location;lat;lon;timestamp;P1;durP1;ratioP1;P2;durP2;ratioP2
81215;SDS011;70688;52.492;13.420;2023-07-31T00:00:35;3.72;;;2.72;;
81215;SDS011;70688;52.492;13.420;2023-07-31T00:03:01;7.82;;;3.17;;
81215;SDS011;70688;52.492;13.420;2023-07-31T00:05:27;4.75;;;2.72;;
81215;SDS011;70688;52.492;13.420;2023-07-31T00:07:52;7.97;;;2.58;;
81215;SDS011;70688;52.492;13.420;2023-07-31T00:10:19;5.22;;;2.50;;
81215;SDS011;70688;52.492;13.420;2023-07-31T00:12:46;6.63;;;2.95;;
81215;SDS011;70688;52.492;13.420;2023-07-31T00:15:12;7.20;;;2.92;;
81215;SDS011;70688;52.492;13.420;2023-07-31T00:17:39;4.53;;;2.88;;
81215;SDS011;70688;52.492;13.420;2023-07-31T00:20:05;4.13;;;2.83;;
81215;SDS011;70688;52.492;13.420;2023-07-31T00:22:31;6.22;;;3.63;;
81215;SDS011;70688;52.492;13.420;2023-07-31T00:24:56;5.57;;;2.90;;
81215;SDS011;70688;52.492;13.420;2023-07-31T00:27:22;6.80;;;2.83;;
81215;SDS011;70688;52.492;13.420;2023-07-31T00:29:48;7.97;;;2.90;;
81215;SDS011;70688;52.492;13.420;2023-07-31T00:32:14;4.68;;;2.83;;
81215;SDS011;70688;52.492;13.420;2023-07-31T00:34:39;9.40;;;3.35;;
81215;SDS011;70688;52.492;13.420;2023-07-31T00:37:05;8.25;;;3.10;;
81215;SDS011;70688;52.492;13.420;2023-07-31T00:39:33;6.43;;;2.60;;
81215;SDS011;70688;52.492;13.420;2023-07-31T00:41:59;6.07;;;2.78;;
81215;SDS011;70688;52.492;13.420;2023-07-31T00:44:25;6.53;;;3.15;;
81215;SDS011;70688;52.492;13.420;2023-07-31T00:46:50;4.20;;;3.13;;
81215;SDS011;70688;52.492;13.420;2023-07-31T00:49:16;6.60;;;3.00;;
81215;SDS011;70688;52.492;13.420;2023-07-31T00:51:41;5.97;;;3.25;;
81215;SDS011;70688;52.492;13.420;2023-07-31T00:54:07;7.63;;;3.20;;
81215;SDS011;70688;52.492;13.420;2023-07-31T00:56:33;4.57;;;3.33;;
81215;SDS011;70688;52.492;13.420;2023-07-31T00:58:59;6.88;;;3.65;;
81215;SDS011;70688;52.492;13.420;2023-07-31T01:01:24;5.65;;;3.40;;
81215;SDS011;70688;52.492;13.420;2023-07-31T01:03:50;9.38;;;4.70;;
81215;SDS011;70688;52.492;13.420;2023-07-31T01:11:53;5.72;;;3.60;;
81215;SDS011;70688;52.492;13.420;2023-07-31T01:14:22;6.90;;;3.35;;
81215;SDS011;70688;52.492;13.420;2023-07-31T01:16:48;7.88;;;3.58;;
81215;SDS011;70688;52.492;13.420;2023-07-31T01:19:14;5.65;;;3.33;;
81215;SDS011;70688;52.492;13.420;2023-07-31T01:24:28;7.05;;;3.40;;
81215;SDS011;70688;52.492;13.420;2023-07-31T01:27:03;4.97;;;3.35;;
81215;SDS011;70688;52.492;13.420;2023-07-31T01:32:22;6.47;;;3.55;;
81215;SDS011;70688;52.492;13.420;2023-07-31T01:34:50;10.38;;;4.25;;
81215;SDS011;70688;52.492;13.420;2023-07-31T01:37:17;8.60;;;3.65;;
81215;SDS011;70688;52.492;13.420;2023-07-31T01:39:43;8.15;;;3.60;;
81215;SDS011;70688;52.492;13.420;2023-07-31T01:42:08;6.60;;;3.63;;
81215;SDS011;70688;52.492;13.420;2023-07-31T01:44:34;6.30;;;3.80;;
81215;SDS011;70688;52.492;13.420;2023-07-31T01:46:59;6.28;;;3.63;;
81215;SDS011;70688;52.492;13.420;2023-07-31T01:49:25;8.52;;;3.67;;
81215;SDS011;70688;52.492;13.420;2023-07-31T01:51:51;9.30;;;3.70;;
81215;SDS011;70688;52.492;13.420;2023-07-31T01:54:16;6.88;;;3.33;;
81215;SDS011;70688;52.492;13.420;2023-07-31T01:56:42;6.97;;;3.92;;
81215;SDS011;70688;52.492;13.420;2023-07-31T01:59:07;7.00;;;3.67;;
81215;SDS011;70688;52.492;13.420;2023-07-31T02:01:33;5.85;;;3.40;;
81215;SDS011;70688;52.492;13.420;2023-07-31T02:03:59;7.63;;;3.35;;
81215;SDS011;70688;52.492;13.420;2023-07-31T02:06:24;6.85;;;3.60;;
81215;SDS011;70688;52.492;13.420;2023-07-31T02:08:50;6.57;;;3.55;;
81215;SDS011;70688;52.492;13.420;2023-07-31T02:11:15;10.57;;;3.65;;
81215;SDS011;70688;52.492;13.420;2023-07-31T02:13:41;7.07;;;3.60;;
81215;SDS011;70688;52.492;13.420;2023-07-31T02:16:07;7.88;;;3.58;;
81215;SDS011;70688;52.492;13.420;2023-07-31T02:18:32;5.18;;;3.60;;
81215;SDS011;70688;52.492;13.420;2023-07-31T02:20:58;6.65;;;3.95;;
81215;SDS011;70688;52.492;13.420;2023-07-31T02:23:23;6.75;;;3.90;;
81215;SDS011;70688;52.492;13.420;2023-07-31T02:25:49;7.60;;;3.70;;
81215;SDS011;70688;52.492;13.420;2023-07-31T02:28:14;6.63;;;3.67;;
81215;SDS011;70688;52.492;13.420;2023-07-31T02:30:43;6.00;;;3.50;;
81215;SDS011;70688;52.492;13.420;2023-07-31T02:33:10;6.90;;;3.88;;
81215;SDS011;70688;52.492;13.420;2023-07-31T02:35:35;5.50;;;3.35;;
81215;SDS011;70688;52.492;13.420;2023-07-31T02:38:01;8.50;;;4.05;;
81215;SDS011;70688;52.492;13.420;2023-07-31T02:40:26;9.57;;;3.90;;
81215;SDS011;70688;52.492;13.420;2023-07-31T02:42:52;8.25;;;4.10;;
81215;SDS011;70688;52.492;13.420;2023-07-31T02:45:17;8.45;;;3.78;;
81215;SDS011;70688;52.492;13.420;2023-07-31T02:47:43;6.30;;;3.63;;
81215;SDS011;70688;52.492;13.420;2023-07-31T02:50:09;7.22;;;3.67;;
81215;SDS011;70688;52.492;13.420;2023-07-31T02:52:35;7.20;;;4.10;;
81215;SDS011;70688;52.492;13.420;2023-07-31T02:55:01;6.22;;;4.25;;
81215;SDS011;70688;52.492;13.420;2023-07-31T02:57:27;6.93;;;4.22;;
81215;SDS011;70688;52.492;13.420;2023-07-31T02:59:52;7.45;;;3.90;;
81215;SDS011;70688;52.492;13.420;2023-07-31T03:02:18;8.15;;;4.93;;
81215;SDS011;70688;52.492;13.420;2023-07-31T03:04:44;9.77;;;4.65;;
81215;SDS011;70688;52.492;13.420;2023-07-31T03:07:09;9.32;;;4.57;;
81215;SDS011;70688;52.492;13.420;2023-07-31T03:09:35;11.27;;;5.13;;
81215;SDS011;70688;52.492;13.420;2023-07-31T03:12:00;7.82;;;4.63;;
81215;SDS011;70688;52.492;13.420;2023-07-31T03:14:26;9.40;;;4.97;;
81215;SDS011;70688;52.492;13.420;2023-07-31T03:16:52;10.00;;;4.88;;
81215;SDS011;70688;52.492;13.420;2023-07-31T03:19:17;8.68;;;4.88;;
81215;SDS011;70688;52.492;13.420;2023-07-31T03:21:43;8.60;;;4.57;;
81215;SDS011;70688;52.492;13.420;2023-07-31T03:24:09;10.02;;;5.75;;
81215;SDS011;70688;52.492;13.420;2023-07-31T03:26:34;9.35;;;4.93;;
81215;SDS011;70688;52.492;13.420;2023-07-31T03:29:01;11.13;;;5.87;;
81215;SDS011;70688;52.492;13.420;2023-07-31T03:31:27;10.95;;;5.57;;
81215;SDS011;70688;52.492;13.420;2023-07-31T03:33:52;9.00;;;5.50;;
81215;SDS011;70688;52.492;13.420;2023-07-31T03:36:18;8.25;;;5.60;;
81215;SDS011;70688;52.492;13.420;2023-07-31T03:38:44;9.38;;;5.80;;
81215;SDS011;70688;52.492;13.420;2023-07-31T03:41:09;9.75;;;5.45;;
81215;SDS011;70688;52.492;13.420;2023-07-31T03:43:35;9.82;;;5.40;;
81215;SDS011;70688;52.492;13.420;2023-07-31T03:46:01;10.80;;;5.78;;
81215;SDS011;70688;52.492;13.420;2023-07-31T03:48:27;8.68;;;5.45;;
81215;SDS011;70688;52.492;13.420;2023-07-31T03:50:53;10.07;;;5.55;;
81215;SDS011;70688;52.492;13.420;2023-07-31T03:53:19;12.15;;;5.50;;
81215;SDS011;70688;52.492;13.420;2023-07-31T03:55:45;9.27;;;5.70;;
81215;SDS011;70688;52.492;13.420;2023-07-31T03:58:10;9.93;;;6.43;;
81215;SDS011;70688;52.492;13.420;2023-07-31T04:00:36;11.10;;;5.35;;
81215;SDS011;70688;52.492;13.420;2023-07-31T04:03:01;12.65;;;7.82;;
81215;SDS011;70688;52.492;13.420;2023-07-31T04:05:29;12.00;;;5.97;;
81215;SDS011;70688;52.492;13.420;2023-07-31T04:07:55;9.13;;;5.82;;
81215;SDS011;70688;52.492;13.420;2023-07-31T04:10:20;10.27;;;5.53;;
81215;SDS011;70688;52.492;13.420;2023-07-31T04:12:46;9.38;;;5.05;;
81215;SDS011;70688;52.492;13.420;2023-07-31T04:15:12;10.23;;;5.90;;
81215;SDS011;70688;52.492;13.420;2023-07-31T04:17:37;9.90;;;5.15;;
81215;SDS011;70688;52.492;13.420;2023-07-31T04:20:03;12.32;;;6.28;;
81215;SDS011;70688;52.492;13.420;2023-07-31T04:22:29;10.82;;;5.43;;
81215;SDS011;70688;52.492;13.420;2023-07-31T04:24:54;11.10;;;6.40;;
81215;SDS011;70688;52.492;13.420;2023-07-31T04:27:20;7.20;;;5.40;;
81215;SDS011;70688;52.492;13.420;2023-07-31T04:29:45;8.85;;;5.60;;
81215;SDS011;70688;52.492;13.420;2023-07-31T04:32:12;11.57;;;6.00;;
81215;SDS011;70688;52.492;13.420;2023-07-31T04:34:38;11.85;;;5.43;;
81215;SDS011;70688;52.492;13.420;2023-07-31T04:37:03;12.13;;;5.10;;
81215;SDS011;70688;52.492;13.420;2023-07-31T04:39:29;9.68;;;5.63;;
81215;SDS011;70688;52.492;13.420;2023-07-31T04:41:55;10.13;;;5.28;;
81215;SDS011;70688;52.492;13.420;2023-07-31T04:44:20;10.25;;;5.80;;
81215;SDS011;70688;52.492;13.420;2023-07-31T04:46:46;14.70;;;5.68;;
81215;SDS011;70688;52.492;13.420;2023-07-31T04:49:11;9.13;;;5.95;;
81215;SDS011;70688;52.492;13.420;2023-07-31T04:51:37;8.00;;;5.38;;
81215;SDS011;70688;52.492;13.420;2023-07-31T04:54:02;14.05;;;6.00;;
81215;SDS011;70688;52.492;13.420;2023-07-31T04:56:28;14.68;;;6.10;;
81215;SDS011;70688;52.492;13.420;2023-07-31T04:58:54;10.18;;;5.70;;
81215;SDS011;70688;52.492;13.420;2023-07-31T05:01:20;7.85;;;5.55;;
81215;SDS011;70688;52.492;13.420;2023-07-31T05:03:45;8.48;;;6.13;;
81215;SDS011;70688;52.492;13.420;2023-07-31T05:06:11;14.80;;;5.63;;
81215;SDS011;70688;52.492;13.420;2023-07-31T05:08:38;10.27;;;6.60;;
81215;SDS011;70688;52.492;13.420;2023-07-31T05:11:04;11.23;;;5.07;;
81215;SDS011;70688;52.492;13.420;2023-07-31T05:13:30;10.23;;;5.93;;
81215;SDS011;70688;52.492;13.420;2023-07-31T05:15:55;9.95;;;5.15;;
81215;SDS011;70688;52.492;13.420;2023-07-31T05:18:21;10.32;;;5.50;;
81215;SDS011;70688;52.492;13.420;2023-07-31T05:20:46;9.23;;;5.55;;
81215;SDS011;70688;52.492;13.420;2023-07-31T05:23:12;7.85;;;4.72;;
81215;SDS011;70688;52.492;13.420;2023-07-31T05:25:37;7.63;;;4.65;;
81215;SDS011;70688;52.492;13.420;2023-07-31T05:28:03;9.52;;;4.97;;
81215;SDS011;70688;52.492;13.420;2023-07-31T05:30:32;12.18;;;5.65;;
81215;SDS011;70688;52.492;13.420;2023-07-31T05:32:57;13.13;;;4.70;;
81215;SDS011;70688;52.492;13.420;2023-07-31T05:35:23;9.45;;;5.30;;
81215;SDS011;70688;52.492;13.420;2023-07-31T05:37:49;7.43;;;4.45;;
81215;SDS011;70688;52.492;13.420;2023-07-31T05:40:14;9.15;;;4.63;;
81215;SDS011;70688;52.492;13.420;2023-07-31T05:42:40;9.98;;;4.90;;
81215;SDS011;70688;52.492;13.420;2023-07-31T05:45:06;8.93;;;4.75;;
81215;SDS011;70688;52.492;13.420;2023-07-31T05:47:32;6.90;;;4.35;;
81215;SDS011;70688;52.492;13.420;2023-07-31T05:49:58;12.82;;;5.30;;
81215;SDS011;70688;52.492;13.420;2023-07-31T05:52:23;8.80;;;5.18;;
81215;SDS011;70688;52.492;13.420;2023-07-31T05:54:49;11.77;;;5.40;;
81215;SDS011;70688;52.492;13.420;2023-07-31T05:57:16;16.17;;;5.05;;
81215;SDS011;70688;52.492;13.420;2023-07-31T05:59:42;9.77;;;4.35;;
81215;SDS011;70688;52.492;13.420;2023-07-31T06:02:07;7.60;;;4.32;;
81215;SDS011;70688;52.492;13.420;2023-07-31T06:04:33;10.25;;;5.43;;
81215;SDS011;70688;52.492;13.420;2023-07-31T06:06:59;9.95;;;4.65;;
81215;SDS011;70688;52.492;13.420;2023-07-31T06:09:25;9.63;;;4.23;;
81215;SDS011;70688;52.492;13.420;2023-07-31T06:11:51;7.90;;;4.40;;
81215;SDS011;70688;52.492;13.420;2023-07-31T06:14:17;5.97;;;3.58;;
81215;SDS011;70688;52.492;13.420;2023-07-31T06:16:43;6.53;;;3.80;;
81215;SDS011;70688;52.492;13.420;2023-07-31T06:19:09;6.93;;;4.05;;
81215;SDS011;70688;52.492;13.420;2023-07-31T06:21:35;9.52;;;4.28;;
81215;SDS011;70688;52.492;13.420;2023-07-31T06:24:02;9.45;;;4.05;;
81215;SDS011;70688;52.492;13.420;2023-07-31T06:26:29;9.67;;;4.40;;
81215;SDS011;70688;52.492;13.420;2023-07-31T06:28:54;10.93;;;4.40;;
81215;SDS011;70688;52.492;13.420;2023-07-31T06:31:20;8.80;;;4.20;;
81215;SDS011;70688;52.492;13.420;2023-07-31T06:33:48;9.23;;;4.22;;
81215;SDS011;70688;52.492;13.420;2023-07-31T06:36:14;11.32;;;4.10;;
81215;SDS011;70688;52.492;13.420;2023-07-31T06:38:40;8.05;;;4.13;;
81215;SDS011;70688;52.492;13.420;2023-07-31T06:41:05;8.90;;;3.88;;
81215;SDS011;70688;52.492;13.420;2023-07-31T06:43:31;11.13;;;4.53;;
81215;SDS011;70688;52.492;13.420;2023-07-31T06:45:56;11.07;;;3.83;;
81215;SDS011;70688;52.492;13.420;2023-07-31T06:48:22;14.02;;;4.28;;
81215;SDS011;70688;52.492;13.420;2023-07-31T06:50:48;8.85;;;3.92;;
81215;SDS011;70688;52.492;13.420;2023-07-31T06:53:13;4.65;;;3.20;;
81215;SDS011;70688;52.492;13.420;2023-07-31T06:55:39;8.75;;;3.70;;
81215;SDS011;70688;52.492;13.420;2023-07-31T06:58:04;8.73;;;4.15;;
81215;SDS011;70688;52.492;13.420;2023-07-31T07:00:30;9.13;;;3.40;;
81215;SDS011;70688;52.492;13.420;2023-07-31T07:02:57;7.35;;;3.90;;
81215;SDS011;70688;52.492;13.420;2023-07-31T07:05:23;9.00;;;3.63;;
81215;SDS011;70688;52.492;13.420;2023-07-31T07:07:49;10.27;;;4.18;;
81215;SDS011;70688;52.492;13.420;2023-07-31T07:10:16;10.88;;;3.97;;
81215;SDS011;70688;52.492;13.420;2023-07-31T07:12:42;7.95;;;3.60;;
81215;SDS011;70688;52.492;13.420;2023-07-31T07:15:08;6.47;;;3.67;;
81215;SDS011;70688;52.492;13.420;2023-07-31T07:17:34;7.07;;;3.80;;
81215;SDS011;70688;52.492;13.420;2023-07-31T07:20:00;6.75;;;3.40;;
81215;SDS011;70688;52.492;13.420;2023-07-31T07:22:25;11.00;;;3.40;;
81215;SDS011;70688;52.492;13.420;2023-07-31T07:24:52;7.32;;;4.13;;
81215;SDS011;70688;52.492;13.420;2023-07-31T07:27:18;8.07;;;3.97;;
81215;SDS011;70688;52.492;13.420;2023-07-31T07:29:43;9.57;;;3.80;;
81215;SDS011;70688;52.492;13.420;2023-07-31T07:32:10;6.23;;;3.20;;
81215;SDS011;70688;52.492;13.420;2023-07-31T07:34:36;7.75;;;3.83;;
81215;SDS011;70688;52.492;13.420;2023-07-31T07:37:02;8.05;;;3.80;;
81215;SDS011;70688;52.492;13.420;2023-07-31T07:39:28;7.38;;;3.45;;
81215;SDS011;70688;52.492;13.420;2023-07-31T07:41:53;7.10;;;3.30;;
81215;SDS011;70688;52.492;13.420;2023-07-31T07:44:19;5.60;;;3.70;;
81215;SDS011;70688;52.492;13.420;2023-07-31T07:46:45;6.13;;;3.42;;
81215;SDS011;70688;52.492;13.420;2023-07-31T07:49:10;7.13;;;3.60;;
81215;SDS011;70688;52.492;13.420;2023-07-31T07:51:36;5.95;;;3.58;;
81215;SDS011;70688;52.492;13.420;2023-07-31T07:54:02;6.35;;;3.80;;
81215;SDS011;70688;52.492;13.420;2023-07-31T07:56:27;8.05;;;3.80;;
81215;SDS011;70688;52.492;13.420;2023-07-31T07:58:53;7.75;;;3.67;;
81215;SDS011;70688;52.492;13.420;2023-07-31T08:01:19;5.13;;;3.22;;
81215;SDS011;70688;52.492;13.420;2023-07-31T08:03:45;5.65;;;3.60;;
81215;SDS011;70688;52.492;13.420;2023-07-31T08:06:11;8.43;;;3.78;;
81215;SDS011;70688;52.492;13.420;2023-07-31T08:08:38;6.13;;;3.75;;
81215;SDS011;70688;52.492;13.420;2023-07-31T08:11:03;9.45;;;3.67;;
81215;SDS011;70688;52.492;13.420;2023-07-31T08:13:29;6.10;;;3.30;;
81215;SDS011;70688;52.492;13.420;2023-07-31T08:15:55;6.72;;;3.72;;
81215;SDS011;70688;52.492;13.420;2023-07-31T08:18:21;5.82;;;3.47;;
81215;SDS011;70688;52.492;13.420;2023-07-31T08:20:47;4.65;;;3.20;;
81215;SDS011;70688;52.492;13.420;2023-07-31T08:23:13;6.93;;;3.53;;
81215;SDS011;70688;52.492;13.420;2023-07-31T08:25:38;9.80;;;3.60;;
81215;SDS011;70688;52.492;13.420;2023-07-31T08:28:04;6.97;;;3.65;;
81215;SDS011;70688;52.492;13.420;2023-07-31T08:30:31;6.47;;;3.53;;
81215;SDS011;70688;52.492;13.420;2023-07-31T08:32:58;5.80;;;3.42;;
81215;SDS011;70688;52.492;13.420;2023-07-31T08:35:24;7.38;;;3.60;;
81215;SDS011;70688;52.492;13.420;2023-07-31T08:37:50;4.55;;;3.60;;
81215;SDS011;70688;52.492;13.420;2023-07-31T08:40:16;5.80;;;3.65;;
81215;SDS011;70688;52.492;13.420;2023-07-31T08:42:48;4.80;;;3.25;;
81215;SDS011;70688;52.492;13.420;2023-07-31T08:45:16;5.63;;;3.50;;
81215;SDS011;70688;52.492;13.420;2023-07-31T08:50:16;6.93;;;3.63;;
81215;SDS011;70688;52.492;13.420;2023-07-31T08:52:43;6.95;;;3.78;;
81215;SDS011;70688;52.492;13.420;2023-07-31T08:55:09;6.97;;;4.22;;
81215;SDS011;70688;52.492;13.420;2023-07-31T08:57:36;8.73;;;4.10;;
81215;SDS011;70688;52.492;13.420;2023-07-31T09:00:04;4.97;;;3.33;;
81215;SDS011;70688;52.492;13.420;2023-07-31T09:03:13;5.65;;;3.22;;
81215;SDS011;70688;52.492;13.420;2023-07-31T09:05:33;5.28;;;3.17;;
81215;SDS011;70688;52.492;13.420;2023-07-31T09:08:01;5.75;;;3.55;;
81215;SDS011;70688;52.492;13.420;2023-07-31T09:10:29;5.35;;;3.33;;
81215;SDS011;70688;52.492;13.420;2023-07-31T09:12:54;4.57;;;2.70;;
81215;SDS011;70688;52.492;13.420;2023-07-31T09:15:21;4.50;;;2.78;;
81215;SDS011;70688;52.492;13.420;2023-07-31T09:17:48;5.50;;;3.20;;
81215;SDS011;70688;52.492;13.420;2023-07-31T09:20:25;5.55;;;2.88;;
81215;SDS011;70688;52.492;13.420;2023-07-31T09:22:50;4.57;;;2.60;;
81215;SDS011;70688;52.492;13.420;2023-07-31T09:30:15;4.50;;;2.35;;
81215;SDS011;70688;52.492;13.420;2023-07-31T09:32:43;4.18;;;2.28;;
81215;SDS011;70688;52.492;13.420;2023-07-31T09:37:40;6.10;;;3.58;;
81215;SDS011;70688;52.492;13.420;2023-07-31T09:40:06;3.13;;;2.10;;
81215;SDS011;70688;52.492;13.420;2023-07-31T09:42:32;4.28;;;2.20;;
81215;SDS011;70688;52.492;13.420;2023-07-31T09:45:08;2.13;;;1.88;;
81215;SDS011;70688;52.492;13.420;2023-07-31T09:47:34;5.35;;;2.50;;
81215;SDS011;70688;52.492;13.420;2023-07-31T09:50:00;4.82;;;2.90;;
81215;SDS011;70688;52.492;13.420;2023-07-31T09:52:26;2.67;;;1.80;;
81215;SDS011;70688;52.492;13.420;2023-07-31T09:54:52;4.45;;;2.00;;
81215;SDS011;70688;52.492;13.420;2023-07-31T09:57:18;3.60;;;2.10;;
81215;SDS011;70688;52.492;13.420;2023-07-31T09:59:47;7.50;;;4.38;;
81215;SDS011;70688;52.492;13.420;2023-07-31T10:02:15;5.35;;;2.55;;
81215;SDS011;70688;52.492;13.420;2023-07-31T10:04:45;5.13;;;2.20;;
81215;SDS011;70688;52.492;13.420;2023-07-31T10:07:16;5.10;;;2.53;;
81215;SDS011;70688;52.492;13.420;2023-07-31T10:09:43;6.97;;;3.55;;
81215;SDS011;70688;52.492;13.420;2023-07-31T10:12:10;4.30;;;2.80;;
81215;SDS011;70688;52.492;13.420;2023-07-31T10:14:39;4.57;;;3.00;;
81215;SDS011;70688;52.492;13.420;2023-07-31T10:19:33;5.22;;;3.00;;
81215;SDS011;70688;52.492;13.420;2023-07-31T10:24:27;6.15;;;3.60;;
81215;SDS011;70688;52.492;13.420;2023-07-31T10:26:54;9.13;;;4.65;;
81215;SDS011;70688;52.492;13.420;2023-07-31T10:29:23;8.95;;;4.43;;
81215;SDS011;70688;52.492;13.420;2023-07-31T10:31:50;6.40;;;3.85;;
81215;SDS011;70688;52.492;13.420;2023-07-31T10:34:17;8.48;;;4.35;;
81215;SDS011;70688;52.492;13.420;2023-07-31T10:36:43;9.50;;;5.22;;
81215;SDS011;70688;52.492;13.420;2023-07-31T10:42:09;10.00;;;5.47;;
81215;SDS011;70688;52.492;13.420;2023-07-31T10:44:35;9.25;;;4.80;;
81215;SDS011;70688;52.492;13.420;2023-07-31T10:47:01;9.45;;;5.35;;
81215;SDS011;70688;52.492;13.420;2023-07-31T10:49:27;8.30;;;4.90;;
81215;SDS011;70688;52.492;13.420;2023-07-31T10:51:56;9.88;;;4.65;;
81215;SDS011;70688;52.492;13.420;2023-07-31T10:54:22;8.70;;;4.57;;
81215;SDS011;70688;52.492;13.420;2023-07-31T10:56:51;7.53;;;4.22;;
81215;SDS011;70688;52.492;13.420;2023-07-31T10:59:18;7.10;;;3.83;;
81215;SDS011;70688;52.492;13.420;2023-07-31T11:04:21;8.85;;;4.30;;
81215;SDS011;70688;52.492;13.420;2023-07-31T11:06:58;7.30;;;3.83;;
81215;SDS011;70688;52.492;13.420;2023-07-31T11:09:27;7.50;;;3.78;;
81215;SDS011;70688;52.492;13.420;2023-07-31T11:11:59;8.23;;;3.70;;
81215;SDS011;70688;52.492;13.420;2023-07-31T11:14:25;6.60;;;3.85;;
81215;SDS011;70688;52.492;13.420;2023-07-31T11:16:51;5.55;;;3.65;;
81215;SDS011;70688;52.492;13.420;2023-07-31T11:19:23;8.57;;;4.05;;
81215;SDS011;70688;52.492;13.420;2023-07-31T11:21:50;11.07;;;5.25;;
81215;SDS011;70688;52.492;13.420;2023-07-31T11:24:19;13.57;;;5.57;;
81215;SDS011;70688;52.492;13.420;2023-07-31T11:26:52;10.10;;;4.80;;
81215;SDS011;70688;52.492;13.420;2023-07-31T11:29:18;7.70;;;3.80;;
81215;SDS011;70688;52.492;13.420;2023-07-31T11:31:44;8.88;;;4.15;;
81215;SDS011;70688;52.492;13.420;2023-07-31T11:34:15;6.80;;;4.32;;
81215;SDS011;70688;52.492;13.420;2023-07-31T11:36:47;11.90;;;4.10;;
81215;SDS011;70688;52.492;13.420;2023-07-31T11:39:18;11.85;;;4.57;;
81215;SDS011;70688;52.492;13.420;2023-07-31T11:41:44;8.93;;;3.97;;
81215;SDS011;70688;52.492;13.420;2023-07-31T11:44:09;8.73;;;4.18;;
81215;SDS011;70688;52.492;13.420;2023-07-31T11:46:35;6.60;;;4.18;;
81215;SDS011;70688;52.492;13.420;2023-07-31T11:49:01;8.77;;;4.25;;
81215;SDS011;70688;52.492;13.420;2023-07-31T11:51:27;11.93;;;7.50;;
81215;SDS011;70688;52.492;13.420;2023-07-31T11:53:55;9.32;;;4.57;;
81215;SDS011;70688;52.492;13.420;2023-07-31T11:56:23;14.70;;;8.52;;
81215;SDS011;70688;52.492;13.420;2023-07-31T11:58:51;8.35;;;4.07;;
81215;SDS011;70688;52.492;13.420;2023-07-31T12:01:23;9.10;;;4.35;;
81215;SDS011;70688;52.492;13.420;2023-07-31T12:03:49;7.57;;;3.47;;
81215;SDS011;70688;52.492;13.420;2023-07-31T12:06:16;8.45;;;3.97;;
81215;SDS011;70688;52.492;13.420;2023-07-31T12:08:41;10.35;;;4.07;;
81215;SDS011;70688;52.492;13.420;2023-07-31T12:11:08;8.55;;;4.88;;
81215;SDS011;70688;52.492;13.420;2023-07-31T12:13:34;7.90;;;4.18;;
81215;SDS011;70688;52.492;13.420;2023-07-31T12:16:01;8.85;;;4.90;;
81215;SDS011;70688;52.492;13.420;2023-07-31T12:18:28;10.13;;;5.47;;
81215;SDS011;70688;52.492;13.420;2023-07-31T12:23:31;5.82;;;3.67;;
81215;SDS011;70688;52.492;13.420;2023-07-31T12:26:01;7.95;;;3.80;;
81215;SDS011;70688;52.492;13.420;2023-07-31T12:28:28;9.30;;;4.20;;
81215;SDS011;70688;52.492;13.420;2023-07-31T12:30:56;7.00;;;4.00;;
81215;SDS011;70688;52.492;13.420;2023-07-31T12:33:29;9.32;;;4.45;;
81215;SDS011;70688;52.492;13.420;2023-07-31T12:35:56;10.43;;;4.75;;
81215;SDS011;70688;52.492;13.420;2023-07-31T12:38:22;10.63;;;3.67;;
81215;SDS011;70688;52.492;13.420;2023-07-31T12:40:47;6.25;;;3.70;;
81215;SDS011;70688;52.492;13.420;2023-07-31T12:43:13;6.55;;;3.72;;
81215;SDS011;70688;52.492;13.420;2023-07-31T12:45:39;6.82;;;3.28;;
81215;SDS011;70688;52.492;13.420;2023-07-31T12:48:04;5.40;;;3.30;;
81215;SDS011;70688;52.492;13.420;2023-07-31T12:50:30;5.82;;;3.42;;
81215;SDS011;70688;52.492;13.420;2023-07-31T12:52:56;7.95;;;3.25;;
81215;SDS011;70688;52.492;13.420;2023-07-31T12:55:22;6.57;;;3.40;;
81215;SDS011;70688;52.492;13.420;2023-07-31T12:57:49;8.63;;;3.85;;
81215;SDS011;70688;52.492;13.420;2023-07-31T13:00:15;5.78;;;3.20;;
81215;SDS011;70688;52.492;13.420;2023-07-31T13:02:41;5.10;;;3.10;;
81215;SDS011;70688;52.492;13.420;2023-07-31T13:05:07;5.93;;;3.20;;
81215;SDS011;70688;52.492;13.420;2023-07-31T13:07:33;4.68;;;2.85;;
81215;SDS011;70688;52.492;13.420;2023-07-31T13:09:59;6.90;;;2.80;;
81215;SDS011;70688;52.492;13.420;2023-07-31T13:12:24;6.05;;;2.90;;
81215;SDS011;70688;52.492;13.420;2023-07-31T13:14:50;7.25;;;2.80;;
81215;SDS011;70688;52.492;13.420;2023-07-31T13:17:16;5.75;;;2.65;;
81215;SDS011;70688;52.492;13.420;2023-07-31T13:19:42;5.70;;;2.90;;
81215;SDS011;70688;52.492;13.420;2023-07-31T13:22:08;7.50;;;3.15;;
81215;SDS011;70688;52.492;13.420;2023-07-31T13:24:34;9.65;;;3.65;;
81215;SDS011;70688;52.492;13.420;2023-07-31T13:26:59;7.05;;;3.22;;
81215;SDS011;70688;52.492;13.420;2023-07-31T13:29:25;5.45;;;3.05;;
81215;SDS011;70688;52.492;13.420;2023-07-31T13:31:51;7.80;;;3.17;;
81215;SDS011;70688;52.492;13.420;2023-07-31T13:34:17;9.43;;;4.13;;
81215;SDS011;70688;52.492;13.420;2023-07-31T13:36:43;6.57;;;3.42;;
81215;SDS011;70688;52.492;13.420;2023-07-31T13:39:08;7.38;;;3.38;;
81215;SDS011;70688;52.492;13.420;2023-07-31T13:41:34;8.35;;;3.65;;
81215;SDS011;70688;52.492;13.420;2023-07-31T13:44:00;7.82;;;3.42;;
81215;SDS011;70688;52.492;13.420;2023-07-31T13:46:25;6.80;;;4.00;;
81215;SDS011;70688;52.492;13.420;2023-07-31T13:48:51;8.80;;;3.97;;
81215;SDS011;70688;52.492;13.420;2023-07-31T13:51:20;6.85;;;4.38;;
81215;SDS011;70688;52.492;13.420;2023-07-31T13:53:46;6.93;;;3.80;;
81215;SDS011;70688;52.492;13.420;2023-07-31T13:56:12;9.13;;;4.28;;
81215;SDS011;70688;52.492;13.420;2023-07-31T13:58:38;6.03;;;3.58;;
81215;SDS011;70688;52.492;13.420;2023-07-31T14:01:03;8.02;;;4.05;;
81215;SDS011;70688;52.492;13.420;2023-07-31T14:03:29;7.97;;;4.35;;
81215;SDS011;70688;52.492;13.420;2023-07-31T14:05:58;10.98;;;3.92;;
81215;SDS011;70688;52.492;13.420;2023-07-31T14:08:24;7.45;;;3.85;;
81215;SDS011;70688;52.492;13.420;2023-07-31T14:10:49;11.25;;;4.20;;
81215;SDS011;70688;52.492;13.420;2023-07-31T14:13:15;9.70;;;4.00;;
81215;SDS011;70688;52.492;13.420;2023-07-31T14:15:44;10.48;;;3.92;;
81215;SDS011;70688;52.492;13.420;2023-07-31T14:18:09;10.65;;;4.40;;
81215;SDS011;70688;52.492;13.420;2023-07-31T14:20:35;14.18;;;5.60;;
81215;SDS011;70688;52.492;13.420;2023-07-31T14:23:01;7.38;;;4.28;;
81215;SDS011;70688;52.492;13.420;2023-07-31T14:25:28;8.77;;;4.10;;
81215;SDS011;70688;52.492;13.420;2023-07-31T14:27:53;8.18;;;3.85;;
81215;SDS011;70688;52.492;13.420;2023-07-31T14:30:19;10.48;;;4.93;;
81215;SDS011;70688;52.492;13.420;2023-07-31T14:32:45;8.10;;;4.03;;
81215;SDS011;70688;52.492;13.420;2023-07-31T14:35:11;7.03;;;3.83;;
81215;SDS011;70688;52.492;13.420;2023-07-31T14:37:37;7.85;;;3.65;;
81215;SDS011;70688;52.492;13.420;2023-07-31T14:40:08;9.27;;;4.22;;
81215;SDS011;70688;52.492;13.420;2023-07-31T14:42:35;7.85;;;3.72;;
81215;SDS011;70688;52.492;13.420;2023-07-31T14:45:01;6.65;;;3.97;;
81215;SDS011;70688;52.492;13.420;2023-07-31T14:47:27;7.63;;;3.80;;
81215;SDS011;70688;52.492;13.420;2023-07-31T14:49:53;8.00;;;3.80;;
81215;SDS011;70688;52.492;13.420;2023-07-31T14:52:18;8.00;;;3.80;;
81215;SDS011;70688;52.492;13.420;2023-07-31T14:54:44;7.63;;;3.22;;
81215;SDS011;70688;52.492;13.420;2023-07-31T14:57:10;7.45;;;3.65;;
81215;SDS011;70688;52.492;13.420;2023-07-31T14:59:36;10.25;;;3.88;;
81215;SDS011;70688;52.492;13.420;2023-07-31T15:02:01;6.55;;;3.53;;